weather.gov     
National Weather Service

Terminal Aerodrome Forecast
NWS Homepage
This page is being discontinued on March 12, 2014.
The same data is available at this site. Please update your bookmarks.
Thank you, and we apologize for the inconvenience.
Please send an email to SR-SRH.Webmaster@noaa.gov with any concerns.


Current Version
Previous Version:    01  02  03  04  05  06  07  08  09  10  11  12  13  14  15  16  17  18  19  20  21  22  23  24  25  26  27  28  29  30  
   31  32  33  34  35  36  37  38  39  40  41  42  43  44  45  
[Printable]
509
FTUS41 KRLX 190200 AAA
TAFEKN
TAF AMD
KEKN 190241Z 1903/1924 00000KT P6SM BKN045
     FM190500 00000KT 6SM BR FEW001 BKN045
     FM190800 00000KT 2SM BR SCT001 BKN045
      TEMPO 1908/1912 1/2SM FG BKN001
     FM191300 VRB03KT 2SM BR SCT010
     FM191400 VRB03KT P6SM SCT025
     FM191600 15005KT P6SM BKN030
     FM192100 17005KT P6SM BKN035
     FM192200 16005KT P6SM SCT035=


U.S. Dept. of Commerce
NOAA National Weather Service
1325 East West Highway
Silver Spring, MD 20910
E-mail: w-nws.webmaster@noaa.gov
Page last modified: May 16, 2007
NATIONAL WEATHER SERVICE: for Safety, for Work, for Fun - FOR LIFE